sensor_id;sensor_type;location;lat;lon;timestamp;P1;durP1;ratioP1;P2;durP2;ratioP2
28714;SDS011;15886;49.170;14.572;2023-06-22T00:00:41;12.48;;;4.93;;
28714;SDS011;15886;49.170;14.572;2023-06-22T00:03:09;18.02;;;4.90;;
28714;SDS011;15886;49.170;14.572;2023-06-22T00:05:38;8.35;;;4.53;;
28714;SDS011;15886;49.170;14.572;2023-06-22T00:08:06;14.35;;;5.35;;
28714;SDS011;15886;49.170;14.572;2023-06-22T00:10:34;12.25;;;5.13;;
28714;SDS011;15886;49.170;14.572;2023-06-22T00:13:03;15.48;;;5.47;;
28714;SDS011;15886;49.170;14.572;2023-06-22T00:15:32;14.52;;;4.82;;
28714;SDS011;15886;49.170;14.572;2023-06-22T00:18:01;15.38;;;4.20;;
28714;SDS011;15886;49.170;14.572;2023-06-22T00:20:30;20.70;;;4.95;;
28714;SDS011;15886;49.170;14.572;2023-06-22T00:23:04;18.85;;;5.40;;
28714;SDS011;15886;49.170;14.572;2023-06-22T00:25:43;15.85;;;6.28;;
28714;SDS011;15886;49.170;14.572;2023-06-22T00:28:12;28.92;;;5.20;;
28714;SDS011;15886;49.170;14.572;2023-06-22T00:30:53;23.55;;;5.53;;
28714;SDS011;15886;49.170;14.572;2023-06-22T00:33:22;15.20;;;5.05;;
28714;SDS011;15886;49.170;14.572;2023-06-22T00:38:22;18.35;;;5.43;;
28714;SDS011;15886;49.170;14.572;2023-06-22T00:40:50;16.73;;;4.97;;
28714;SDS011;15886;49.170;14.572;2023-06-22T00:43:20;14.60;;;4.93;;
28714;SDS011;15886;49.170;14.572;2023-06-22T00:45:48;14.18;;;5.05;;
28714;SDS011;15886;49.170;14.572;2023-06-22T00:48:16;18.25;;;6.05;;
28714;SDS011;15886;49.170;14.572;2023-06-22T00:50:47;16.85;;;4.75;;
28714;SDS011;15886;49.170;14.572;2023-06-22T00:53:17;24.35;;;5.93;;
28714;SDS011;15886;49.170;14.572;2023-06-22T00:58:19;15.90;;;4.43;;
28714;SDS011;15886;49.170;14.572;2023-06-22T01:00:51;13.13;;;5.05;;
28714;SDS011;15886;49.170;14.572;2023-06-22T01:03:19;9.93;;;5.38;;
28714;SDS011;15886;49.170;14.572;2023-06-22T01:05:49;17.23;;;4.80;;
28714;SDS011;15886;49.170;14.572;2023-06-22T01:08:21;7.25;;;4.45;;
28714;SDS011;15886;49.170;14.572;2023-06-22T01:13:49;13.20;;;4.43;;
28714;SDS011;15886;49.170;14.572;2023-06-22T01:19:16;13.00;;;4.70;;
28714;SDS011;15886;49.170;14.572;2023-06-22T01:21:46;10.45;;;5.47;;
28714;SDS011;15886;49.170;14.572;2023-06-22T01:24:41;13.18;;;5.78;;
28714;SDS011;15886;49.170;14.572;2023-06-22T01:32:17;8.32;;;5.00;;
28714;SDS011;15886;49.170;14.572;2023-06-22T01:34:54;23.88;;;5.65;;
28714;SDS011;15886;49.170;14.572;2023-06-22T01:37:25;26.73;;;4.78;;
28714;SDS011;15886;49.170;14.572;2023-06-22T01:39:53;18.45;;;5.50;;
28714;SDS011;15886;49.170;14.572;2023-06-22T01:42:23;21.42;;;5.68;;
28714;SDS011;15886;49.170;14.572;2023-06-22T01:44:55;11.75;;;4.90;;
28714;SDS011;15886;49.170;14.572;2023-06-22T01:47:25;10.27;;;4.63;;
28714;SDS011;15886;49.170;14.572;2023-06-22T01:49:58;15.55;;;5.00;;
28714;SDS011;15886;49.170;14.572;2023-06-22T01:52:26;9.77;;;4.43;;
28714;SDS011;15886;49.170;14.572;2023-06-22T01:54:56;7.93;;;4.28;;
28714;SDS011;15886;49.170;14.572;2023-06-22T01:57:27;13.98;;;5.72;;
28714;SDS011;15886;49.170;14.572;2023-06-22T02:00:14;12.38;;;4.88;;
28714;SDS011;15886;49.170;14.572;2023-06-22T02:02:57;15.80;;;5.53;;
28714;SDS011;15886;49.170;14.572;2023-06-22T02:05:34;12.25;;;5.10;;
28714;SDS011;15886;49.170;14.572;2023-06-22T02:08:07;12.35;;;5.00;;
28714;SDS011;15886;49.170;14.572;2023-06-22T02:10:49;10.60;;;5.15;;
28714;SDS011;15886;49.170;14.572;2023-06-22T02:13:20;12.23;;;4.68;;
28714;SDS011;15886;49.170;14.572;2023-06-22T02:15:54;13.80;;;5.63;;
28714;SDS011;15886;49.170;14.572;2023-06-22T02:21:20;23.67;;;5.28;;
28714;SDS011;15886;49.170;14.572;2023-06-22T02:23:53;16.45;;;5.55;;
28714;SDS011;15886;49.170;14.572;2023-06-22T02:26:42;21.48;;;4.85;;
28714;SDS011;15886;49.170;14.572;2023-06-22T02:29:31;21.40;;;5.03;;
28714;SDS011;15886;49.170;14.572;2023-06-22T02:32:08;17.00;;;5.30;;
28714;SDS011;15886;49.170;14.572;2023-06-22T02:34:42;18.25;;;5.05;;
28714;SDS011;15886;49.170;14.572;2023-06-22T02:41:30;12.85;;;4.93;;
28714;SDS011;15886;49.170;14.572;2023-06-22T02:43:59;16.60;;;5.60;;
28714;SDS011;15886;49.170;14.572;2023-06-22T02:46:27;17.98;;;5.00;;
28714;SDS011;15886;49.170;14.572;2023-06-22T02:54:02;17.17;;;4.95;;
28714;SDS011;15886;49.170;14.572;2023-06-22T02:56:30;20.27;;;5.53;;
28714;SDS011;15886;49.170;14.572;2023-06-22T02:59:02;17.55;;;5.38;;
28714;SDS011;15886;49.170;14.572;2023-06-22T03:01:39;15.45;;;5.03;;
28714;SDS011;15886;49.170;14.572;2023-06-22T03:04:22;15.07;;;5.00;;
28714;SDS011;15886;49.170;14.572;2023-06-22T03:06:50;21.77;;;6.50;;
28714;SDS011;15886;49.170;14.572;2023-06-22T03:09:19;19.33;;;5.63;;
28714;SDS011;15886;49.170;14.572;2023-06-22T03:11:47;18.58;;;5.82;;
28714;SDS011;15886;49.170;14.572;2023-06-22T03:14:16;27.77;;;5.88;;
28714;SDS011;15886;49.170;14.572;2023-06-22T03:16:44;20.67;;;5.65;;
28714;SDS011;15886;49.170;14.572;2023-06-22T03:19:13;22.95;;;6.57;;
28714;SDS011;15886;49.170;14.572;2023-06-22T03:21:41;34.33;;;7.57;;
28714;SDS011;15886;49.170;14.572;2023-06-22T03:24:10;22.60;;;7.45;;
28714;SDS011;15886;49.170;14.572;2023-06-22T03:26:38;38.70;;;8.95;;
28714;SDS011;15886;49.170;14.572;2023-06-22T03:29:06;38.92;;;9.60;;
28714;SDS011;15886;49.170;14.572;2023-06-22T03:31:35;65.07;;;11.10;;
28714;SDS011;15886;49.170;14.572;2023-06-22T03:34:07;45.45;;;9.82;;
28714;SDS011;15886;49.170;14.572;2023-06-22T03:36:35;36.63;;;9.80;;
28714;SDS011;15886;49.170;14.572;2023-06-22T03:41:36;40.15;;;9.95;;
28714;SDS011;15886;49.170;14.572;2023-06-22T03:44:05;37.10;;;7.97;;
28714;SDS011;15886;49.170;14.572;2023-06-22T03:46:33;25.75;;;9.32;;
28714;SDS011;15886;49.170;14.572;2023-06-22T03:49:01;24.38;;;8.00;;
28714;SDS011;15886;49.170;14.572;2023-06-22T03:51:32;23.40;;;7.03;;
28714;SDS011;15886;49.170;14.572;2023-06-22T03:54:01;15.65;;;6.47;;
28714;SDS011;15886;49.170;14.572;2023-06-22T03:56:30;12.32;;;7.13;;
28714;SDS011;15886;49.170;14.572;2023-06-22T03:59:00;31.63;;;7.60;;
28714;SDS011;15886;49.170;14.572;2023-06-22T04:01:28;10.05;;;6.10;;
28714;SDS011;15886;49.170;14.572;2023-06-22T04:03:57;41.42;;;7.15;;
28714;SDS011;15886;49.170;14.572;2023-06-22T04:06:25;13.68;;;5.90;;
28714;SDS011;15886;49.170;14.572;2023-06-22T04:08:54;15.82;;;5.53;;
28714;SDS011;15886;49.170;14.572;2023-06-22T04:11:23;17.33;;;5.78;;
28714;SDS011;15886;49.170;14.572;2023-06-22T04:13:53;19.20;;;6.57;;
28714;SDS011;15886;49.170;14.572;2023-06-22T04:16:22;25.70;;;7.18;;
28714;SDS011;15886;49.170;14.572;2023-06-22T04:18:50;13.35;;;5.50;;
28714;SDS011;15886;49.170;14.572;2023-06-22T04:21:19;12.40;;;5.18;;
28714;SDS011;15886;49.170;14.572;2023-06-22T04:23:49;23.25;;;5.40;;
28714;SDS011;15886;49.170;14.572;2023-06-22T04:26:17;22.55;;;5.25;;
28714;SDS011;15886;49.170;14.572;2023-06-22T04:28:48;11.65;;;5.80;;
28714;SDS011;15886;49.170;14.572;2023-06-22T04:31:22;7.68;;;5.32;;
28714;SDS011;15886;49.170;14.572;2023-06-22T04:33:54;9.02;;;5.70;;
28714;SDS011;15886;49.170;14.572;2023-06-22T04:36:23;6.20;;;4.35;;
28714;SDS011;15886;49.170;14.572;2023-06-22T04:38:52;6.35;;;4.45;;
28714;SDS011;15886;49.170;14.572;2023-06-22T04:41:20;6.03;;;4.53;;
28714;SDS011;15886;49.170;14.572;2023-06-22T04:43:51;5.22;;;4.30;;
28714;SDS011;15886;49.170;14.572;2023-06-22T04:46:21;8.45;;;4.68;;
28714;SDS011;15886;49.170;14.572;2023-06-22T04:48:49;7.95;;;5.00;;
28714;SDS011;15886;49.170;14.572;2023-06-22T04:51:17;8.75;;;5.13;;
28714;SDS011;15886;49.170;14.572;2023-06-22T04:53:48;10.10;;;6.28;;
28714;SDS011;15886;49.170;14.572;2023-06-22T04:56:17;12.25;;;7.43;;
28714;SDS011;15886;49.170;14.572;2023-06-22T04:58:45;10.02;;;6.60;;
28714;SDS011;15886;49.170;14.572;2023-06-22T05:01:13;8.45;;;6.72;;
28714;SDS011;15886;49.170;14.572;2023-06-22T05:03:42;10.43;;;6.60;;
28714;SDS011;15886;49.170;14.572;2023-06-22T05:06:11;16.83;;;7.18;;
28714;SDS011;15886;49.170;14.572;2023-06-22T05:08:40;10.55;;;6.95;;
28714;SDS011;15886;49.170;14.572;2023-06-22T05:11:10;9.00;;;7.43;;
28714;SDS011;15886;49.170;14.572;2023-06-22T05:13:38;9.60;;;6.97;;
28714;SDS011;15886;49.170;14.572;2023-06-22T05:16:06;14.30;;;7.93;;
28714;SDS011;15886;49.170;14.572;2023-06-22T05:18:35;14.70;;;9.32;;
28714;SDS011;15886;49.170;14.572;2023-06-22T05:21:05;12.43;;;8.05;;
28714;SDS011;15886;49.170;14.572;2023-06-22T05:23:34;8.75;;;6.65;;
28714;SDS011;15886;49.170;14.572;2023-06-22T05:26:02;20.27;;;6.40;;
28714;SDS011;15886;49.170;14.572;2023-06-22T05:28:32;14.35;;;6.93;;
28714;SDS011;15886;49.170;14.572;2023-06-22T05:31:00;13.75;;;7.07;;
28714;SDS011;15886;49.170;14.572;2023-06-22T05:33:30;15.10;;;7.18;;
28714;SDS011;15886;49.170;14.572;2023-06-22T05:35:58;12.48;;;6.05;;
28714;SDS011;15886;49.170;14.572;2023-06-22T05:38:27;13.05;;;7.35;;
28714;SDS011;15886;49.170;14.572;2023-06-22T05:40:56;9.48;;;6.82;;
28714;SDS011;15886;49.170;14.572;2023-06-22T05:43:25;12.82;;;7.05;;
28714;SDS011;15886;49.170;14.572;2023-06-22T05:45:53;11.32;;;6.88;;
28714;SDS011;15886;49.170;14.572;2023-06-22T05:48:22;13.13;;;7.10;;
28714;SDS011;15886;49.170;14.572;2023-06-22T05:50:50;16.13;;;7.78;;
28714;SDS011;15886;49.170;14.572;2023-06-22T05:53:19;17.85;;;7.47;;
28714;SDS011;15886;49.170;14.572;2023-06-22T05:55:47;14.43;;;7.35;;
28714;SDS011;15886;49.170;14.572;2023-06-22T05:58:15;17.05;;;8.45;;
28714;SDS011;15886;49.170;14.572;2023-06-22T06:00:44;11.07;;;8.13;;
28714;SDS011;15886;49.170;14.572;2023-06-22T06:03:13;18.60;;;8.82;;
28714;SDS011;15886;49.170;14.572;2023-06-22T06:05:44;20.58;;;7.95;;
28714;SDS011;15886;49.170;14.572;2023-06-22T06:08:12;11.73;;;7.43;;
28714;SDS011;15886;49.170;14.572;2023-06-22T06:10:44;18.92;;;7.93;;
28714;SDS011;15886;49.170;14.572;2023-06-22T06:13:12;12.68;;;8.80;;
28714;SDS011;15886;49.170;14.572;2023-06-22T06:15:41;13.68;;;8.77;;
28714;SDS011;15886;49.170;14.572;2023-06-22T06:18:09;11.95;;;7.95;;
28714;SDS011;15886;49.170;14.572;2023-06-22T06:20:38;10.88;;;7.97;;
28714;SDS011;15886;49.170;14.572;2023-06-22T06:23:09;16.13;;;8.23;;
28714;SDS011;15886;49.170;14.572;2023-06-22T06:25:39;27.17;;;9.52;;
28714;SDS011;15886;49.170;14.572;2023-06-22T06:28:08;17.05;;;9.95;;
28714;SDS011;15886;49.170;14.572;2023-06-22T06:30:37;15.85;;;10.02;;
28714;SDS011;15886;49.170;14.572;2023-06-22T06:33:05;17.83;;;9.32;;
28714;SDS011;15886;49.170;14.572;2023-06-22T06:35:36;12.82;;;9.90;;
28714;SDS011;15886;49.170;14.572;2023-06-22T06:38:05;15.52;;;10.02;;
28714;SDS011;15886;49.170;14.572;2023-06-22T06:40:40;13.50;;;9.65;;
28714;SDS011;15886;49.170;14.572;2023-06-22T06:43:10;12.93;;;8.82;;
28714;SDS011;15886;49.170;14.572;2023-06-22T06:45:39;21.33;;;11.95;;
28714;SDS011;15886;49.170;14.572;2023-06-22T06:48:08;20.50;;;12.77;;
28714;SDS011;15886;49.170;14.572;2023-06-22T06:50:39;20.05;;;12.07;;
28714;SDS011;15886;49.170;14.572;2023-06-22T06:53:07;16.58;;;10.77;;
28714;SDS011;15886;49.170;14.572;2023-06-22T06:55:35;17.73;;;10.75;;
28714;SDS011;15886;49.170;14.572;2023-06-22T06:58:04;18.35;;;11.43;;
28714;SDS011;15886;49.170;14.572;2023-06-22T07:00:37;18.08;;;12.40;;
28714;SDS011;15886;49.170;14.572;2023-06-22T07:03:05;15.85;;;11.05;;
28714;SDS011;15886;49.170;14.572;2023-06-22T07:05:36;21.88;;;12.50;;
28714;SDS011;15886;49.170;14.572;2023-06-22T07:08:07;19.83;;;11.27;;
28714;SDS011;15886;49.170;14.572;2023-06-22T07:10:35;16.58;;;11.57;;
28714;SDS011;15886;49.170;14.572;2023-06-22T07:13:07;17.77;;;12.10;;
28714;SDS011;15886;49.170;14.572;2023-06-22T07:15:35;20.60;;;13.15;;
28714;SDS011;15886;49.170;14.572;2023-06-22T07:18:03;16.13;;;10.40;;
28714;SDS011;15886;49.170;14.572;2023-06-22T07:20:31;14.90;;;10.68;;
28714;SDS011;15886;49.170;14.572;2023-06-22T07:23:00;25.40;;;11.27;;
28714;SDS011;15886;49.170;14.572;2023-06-22T07:25:29;21.05;;;12.27;;
28714;SDS011;15886;49.170;14.572;2023-06-22T07:28:04;20.25;;;13.35;;
28714;SDS011;15886;49.170;14.572;2023-06-22T07:30:33;19.88;;;13.25;;
28714;SDS011;15886;49.170;14.572;2023-06-22T07:33:02;23.00;;;13.60;;
28714;SDS011;15886;49.170;14.572;2023-06-22T07:35:32;22.77;;;14.18;;
28714;SDS011;15886;49.170;14.572;2023-06-22T07:38:03;20.05;;;14.40;;
28714;SDS011;15886;49.170;14.572;2023-06-22T07:40:32;27.25;;;16.95;;
28714;SDS011;15886;49.170;14.572;2023-06-22T07:43:01;21.80;;;16.20;;
28714;SDS011;15886;49.170;14.572;2023-06-22T07:45:29;21.52;;;15.20;;
28714;SDS011;15886;49.170;14.572;2023-06-22T07:48:01;23.27;;;16.23;;
28714;SDS011;15886;49.170;14.572;2023-06-22T07:50:31;25.92;;;17.38;;
28714;SDS011;15886;49.170;14.572;2023-06-22T07:52:59;27.13;;;16.17;;
28714;SDS011;15886;49.170;14.572;2023-06-22T07:55:27;25.38;;;17.60;;
28714;SDS011;15886;49.170;14.572;2023-06-22T07:57:57;25.70;;;17.48;;
28714;SDS011;15886;49.170;14.572;2023-06-22T08:00:27;28.58;;;17.77;;
28714;SDS011;15886;49.170;14.572;2023-06-22T08:02:56;27.17;;;18.13;;
28714;SDS011;15886;49.170;14.572;2023-06-22T08:05:25;27.08;;;16.58;;
28714;SDS011;15886;49.170;14.572;2023-06-22T08:07:54;29.70;;;17.25;;
28714;SDS011;15886;49.170;14.572;2023-06-22T08:10:24;24.60;;;16.50;;
28714;SDS011;15886;49.170;14.572;2023-06-22T08:12:53;25.95;;;16.98;;
28714;SDS011;15886;49.170;14.572;2023-06-22T08:15:21;28.55;;;18.30;;
28714;SDS011;15886;49.170;14.572;2023-06-22T08:17:49;27.85;;;14.32;;
28714;SDS011;15886;49.170;14.572;2023-06-22T08:20:19;26.17;;;15.68;;
28714;SDS011;15886;49.170;14.572;2023-06-22T08:22:47;20.20;;;13.73;;
28714;SDS011;15886;49.170;14.572;2023-06-22T08:25:16;24.60;;;16.30;;
28714;SDS011;15886;49.170;14.572;2023-06-22T08:27:44;20.30;;;15.27;;
28714;SDS011;15886;49.170;14.572;2023-06-22T08:30:14;18.35;;;14.02;;
28714;SDS011;15886;49.170;14.572;2023-06-22T08:32:44;19.63;;;14.38;;
28714;SDS011;15886;49.170;14.572;2023-06-22T08:35:12;19.45;;;13.27;;
28714;SDS011;15886;49.170;14.572;2023-06-22T08:37:40;17.08;;;12.10;;
28714;SDS011;15886;49.170;14.572;2023-06-22T08:40:09;21.60;;;13.05;;
28714;SDS011;15886;49.170;14.572;2023-06-22T08:42:40;18.45;;;13.55;;
28714;SDS011;15886;49.170;14.572;2023-06-22T08:45:09;17.35;;;12.30;;
28714;SDS011;15886;49.170;14.572;2023-06-22T08:47:40;22.05;;;12.70;;
28714;SDS011;15886;49.170;14.572;2023-06-22T08:50:09;16.75;;;10.95;;
28714;SDS011;15886;49.170;14.572;2023-06-22T08:52:39;18.40;;;12.52;;
28714;SDS011;15886;49.170;14.572;2023-06-22T08:55:11;19.90;;;12.70;;
28714;SDS011;15886;49.170;14.572;2023-06-22T08:57:41;19.73;;;12.65;;
28714;SDS011;15886;49.170;14.572;2023-06-22T09:00:13;19.88;;;12.65;;
28714;SDS011;15886;49.170;14.572;2023-06-22T09:02:46;19.08;;;13.25;;
28714;SDS011;15886;49.170;14.572;2023-06-22T09:05:16;16.58;;;11.27;;
28714;SDS011;15886;49.170;14.572;2023-06-22T09:07:45;23.38;;;10.52;;
28714;SDS011;15886;49.170;14.572;2023-06-22T09:10:13;11.02;;;7.03;;
28714;SDS011;15886;49.170;14.572;2023-06-22T09:12:42;13.48;;;7.60;;
28714;SDS011;15886;49.170;14.572;2023-06-22T09:15:11;11.63;;;8.25;;
28714;SDS011;15886;49.170;14.572;2023-06-22T09:17:42;16.27;;;11.45;;
28714;SDS011;15886;49.170;14.572;2023-06-22T09:20:12;13.80;;;8.90;;
28714;SDS011;15886;49.170;14.572;2023-06-22T09:22:41;13.73;;;8.43;;
28714;SDS011;15886;49.170;14.572;2023-06-22T09:25:09;15.85;;;7.68;;
28714;SDS011;15886;49.170;14.572;2023-06-22T09:27:37;15.35;;;8.27;;
28714;SDS011;15886;49.170;14.572;2023-06-22T09:30:08;12.95;;;6.80;;
28714;SDS011;15886;49.170;14.572;2023-06-22T09:32:36;9.48;;;5.75;;
28714;SDS011;15886;49.170;14.572;2023-06-22T09:35:05;8.23;;;5.43;;
28714;SDS011;15886;49.170;14.572;2023-06-22T09:37:34;9.27;;;5.90;;
28714;SDS011;15886;49.170;14.572;2023-06-22T09:40:02;10.32;;;6.55;;
28714;SDS011;15886;49.170;14.572;2023-06-22T09:42:35;10.07;;;6.57;;
28714;SDS011;15886;49.170;14.572;2023-06-22T09:45:05;11.05;;;5.60;;
28714;SDS011;15886;49.170;14.572;2023-06-22T09:47:33;10.77;;;5.88;;
28714;SDS011;15886;49.170;14.572;2023-06-22T09:50:02;8.05;;;4.50;;
28714;SDS011;15886;49.170;14.572;2023-06-22T09:52:30;10.90;;;6.38;;
28714;SDS011;15886;49.170;14.572;2023-06-22T09:55:00;9.82;;;5.57;;
28714;SDS011;15886;49.170;14.572;2023-06-22T09:57:30;7.30;;;4.90;;
28714;SDS011;15886;49.170;14.572;2023-06-22T10:00:00;6.80;;;5.32;;
28714;SDS011;15886;49.170;14.572;2023-06-22T10:02:30;5.72;;;3.60;;
28714;SDS011;15886;49.170;14.572;2023-06-22T10:05:00;6.93;;;3.47;;
28714;SDS011;15886;49.170;14.572;2023-06-22T10:07:30;6.65;;;4.30;;
28714;SDS011;15886;49.170;14.572;2023-06-22T10:10:01;8.77;;;5.40;;
28714;SDS011;15886;49.170;14.572;2023-06-22T10:12:29;9.23;;;4.75;;
28714;SDS011;15886;49.170;14.572;2023-06-22T10:14:57;13.07;;;5.00;;
28714;SDS011;15886;49.170;14.572;2023-06-22T10:17:26;5.82;;;3.70;;
28714;SDS011;15886;49.170;14.572;2023-06-22T10:19:54;4.82;;;3.28;;
28714;SDS011;15886;49.170;14.572;2023-06-22T10:22:23;4.45;;;3.17;;
28714;SDS011;15886;49.170;14.572;2023-06-22T10:24:51;7.43;;;3.92;;
28714;SDS011;15886;49.170;14.572;2023-06-22T10:27:19;7.25;;;4.07;;
28714;SDS011;15886;49.170;14.572;2023-06-22T10:29:47;4.50;;;3.22;;
28714;SDS011;15886;49.170;14.572;2023-06-22T10:32:16;5.65;;;4.25;;
28714;SDS011;15886;49.170;14.572;2023-06-22T10:34:45;7.53;;;3.80;;
28714;SDS011;15886;49.170;14.572;2023-06-22T10:37:13;5.05;;;3.63;;
28714;SDS011;15886;49.170;14.572;2023-06-22T10:39:42;5.82;;;4.75;;
28714;SDS011;15886;49.170;14.572;2023-06-22T10:42:11;4.35;;;3.00;;
28714;SDS011;15886;49.170;14.572;2023-06-22T10:44:40;6.13;;;3.55;;
28714;SDS011;15886;49.170;14.572;2023-06-22T10:47:11;4.28;;;3.05;;
28714;SDS011;15886;49.170;14.572;2023-06-22T10:49:41;7.00;;;3.97;;
28714;SDS011;15886;49.170;14.572;2023-06-22T10:52:09;9.20;;;4.22;;
28714;SDS011;15886;49.170;14.572;2023-06-22T10:54:39;9.02;;;4.68;;
28714;SDS011;15886;49.170;14.572;2023-06-22T10:57:09;10.43;;;5.63;;
28714;SDS011;15886;49.170;14.572;2023-06-22T10:59:38;9.10;;;5.00;;
28714;SDS011;15886;49.170;14.572;2023-06-22T11:02:06;9.38;;;4.63;;
28714;SDS011;15886;49.170;14.572;2023-06-22T11:04:34;6.75;;;4.15;;
28714;SDS011;15886;49.170;14.572;2023-06-22T11:07:03;4.13;;;3.28;;
28714;SDS011;15886;49.170;14.572;2023-06-22T11:09:32;4.82;;;3.60;;
28714;SDS011;15886;49.170;14.572;2023-06-22T11:12:00;5.90;;;3.80;;
28714;SDS011;15886;49.170;14.572;2023-06-22T11:14:29;12.77;;;3.85;;
28714;SDS011;15886;49.170;14.572;2023-06-22T11:19:29;5.00;;;3.03;;
28714;SDS011;15886;49.170;14.572;2023-06-22T11:21:57;6.72;;;4.25;;
28714;SDS011;15886;49.170;14.572;2023-06-22T11:24:25;5.88;;;3.80;;
28714;SDS011;15886;49.170;14.572;2023-06-22T11:26:53;12.73;;;5.28;;
28714;SDS011;15886;49.170;14.572;2023-06-22T11:29:23;7.78;;;4.40;;
28714;SDS011;15886;49.170;14.572;2023-06-22T11:31:58;3.95;;;2.92;;
28714;SDS011;15886;49.170;14.572;2023-06-22T11:34:26;7.65;;;3.65;;
28714;SDS011;15886;49.170;14.572;2023-06-22T11:36:55;3.45;;;2.72;;
28714;SDS011;15886;49.170;14.572;2023-06-22T11:39:24;8.27;;;3.72;;
28714;SDS011;15886;49.170;14.572;2023-06-22T11:41:54;5.93;;;4.00;;
28714;SDS011;15886;49.170;14.572;2023-06-22T11:44:22;3.40;;;2.83;;
28714;SDS011;15886;49.170;14.572;2023-06-22T11:46:51;5.18;;;3.15;;
28714;SDS011;15886;49.170;14.572;2023-06-22T11:49:20;6.10;;;3.60;;
28714;SDS011;15886;49.170;14.572;2023-06-22T11:51:51;7.47;;;4.03;;
28714;SDS011;15886;49.170;14.572;2023-06-22T11:54:19;3.65;;;3.03;;
28714;SDS011;15886;49.170;14.572;2023-06-22T11:56:47;6.00;;;3.55;;
28714;SDS011;15886;49.170;14.572;2023-06-22T11:59:15;4.90;;;3.45;;
28714;SDS011;15886;49.170;14.572;2023-06-22T12:01:45;5.07;;;2.85;;
28714;SDS011;15886;49.170;14.572;2023-06-22T12:04:14;6.90;;;3.45;;
28714;SDS011;15886;49.170;14.572;2023-06-22T12:06:43;11.27;;;3.30;;
28714;SDS011;15886;49.170;14.572;2023-06-22T12:11:46;21.13;;;3.55;;
28714;SDS011;15886;49.170;14.572;2023-06-22T12:14:14;3.28;;;2.70;;
28714;SDS011;15886;49.170;14.572;2023-06-22T12:16:45;5.30;;;3.38;;
28714;SDS011;15886;49.170;14.572;2023-06-22T12:19:13;7.85;;;4.38;;
28714;SDS011;15886;49.170;14.572;2023-06-22T12:21:41;8.63;;;4.45;;
28714;SDS011;15886;49.170;14.572;2023-06-22T12:24:12;4.88;;;3.28;;
28714;SDS011;15886;49.170;14.572;2023-06-22T12:26:40;4.30;;;3.03;;
28714;SDS011;15886;49.170;14.572;2023-06-22T12:29:10;4.78;;;3.30;;
28714;SDS011;15886;49.170;14.572;2023-06-22T12:31:41;8.23;;;3.35;;
28714;SDS011;15886;49.170;14.572;2023-06-22T12:34:10;3.65;;;2.67;;
28714;SDS011;15886;49.170;14.572;2023-06-22T12:36:38;4.05;;;2.70;;
28714;SDS011;15886;49.170;14.572;2023-06-22T12:41:38;3.88;;;3.20;;
28714;SDS011;15886;49.170;14.572;2023-06-22T12:44:08;4.38;;;2.78;;
28714;SDS011;15886;49.170;14.572;2023-06-22T12:46:38;4.43;;;3.17;;
28714;SDS011;15886;49.170;14.572;2023-06-22T12:49:07;4.20;;;3.10;;
28714;SDS011;15886;49.170;14.572;2023-06-22T12:51:39;6.22;;;3.20;;
28714;SDS011;15886;49.170;14.572;2023-06-22T12:54:10;8.68;;;3.83;;
28714;SDS011;15886;49.170;14.572;2023-06-22T12:56:42;4.20;;;3.00;;
28714;SDS011;15886;49.170;14.572;2023-06-22T12:59:12;3.97;;;3.05;;
28714;SDS011;15886;49.170;14.572;2023-06-22T13:01:43;3.42;;;2.58;;
28714;SDS011;15886;49.170;14.572;2023-06-22T13:04:12;5.63;;;2.85;;
28714;SDS011;15886;49.170;14.572;2023-06-22T13:06:44;12.25;;;3.20;;
28714;SDS011;15886;49.170;14.572;2023-06-22T13:09:15;4.57;;;2.65;;
28714;SDS011;15886;49.170;14.572;2023-06-22T13:11:47;10.02;;;4.50;;
28714;SDS011;15886;49.170;14.572;2023-06-22T13:14:15;4.72;;;2.90;;
28714;SDS011;15886;49.170;14.572;2023-06-22T13:16:44;3.97;;;2.58;;
28714;SDS011;15886;49.170;14.572;2023-06-22T13:19:13;5.35;;;3.53;;
28714;SDS011;15886;49.170;14.572;2023-06-22T13:21:42;5.47;;;3.03;;
28714;SDS011;15886;49.170;14.572;2023-06-22T13:24:10;3.63;;;2.80;;
28714;SDS011;15886;49.170;14.572;2023-06-22T13:26:38;8.50;;;4.05;;
28714;SDS011;15886;49.170;14.572;2023-06-22T13:29:07;4.78;;;2.90;;
28714;SDS011;15886;49.170;14.572;2023-06-22T13:31:35;4.05;;;2.65;;
28714;SDS011;15886;49.170;14.572;2023-06-22T13:34:03;4.90;;;3.28;;
28714;SDS011;15886;49.170;14.572;2023-06-22T13:36:31;4.95;;;2.95;;
28714;SDS011;15886;49.170;14.572;2023-06-22T13:39:01;7.28;;;3.30;;
28714;SDS011;15886;49.170;14.572;2023-06-22T13:41:32;5.88;;;3.70;;
28714;SDS011;15886;49.170;14.572;2023-06-22T13:44:01;3.13;;;2.47;;
28714;SDS011;15886;49.170;14.572;2023-06-22T13:46:30;3.17;;;2.75;;
28714;SDS011;15886;49.170;14.572;2023-06-22T13:49:00;10.98;;;4.10;;
28714;SDS011;15886;49.170;14.572;2023-06-22T13:51:28;9.27;;;4.43;;
28714;SDS011;15886;49.170;14.572;2023-06-22T13:53:56;11.20;;;3.65;;
28714;SDS011;15886;49.170;14.572;2023-06-22T13:56:24;4.55;;;2.92;;
28714;SDS011;15886;49.170;14.572;2023-06-22T13:58:54;4.20;;;3.35;;
28714;SDS011;15886;49.170;14.572;2023-06-22T14:01:22;6.20;;;3.80;;
28714;SDS011;15886;49.170;14.572;2023-06-22T14:03:50;6.30;;;3.13;;
28714;SDS011;15886;49.170;14.572;2023-06-22T14:06:18;4.15;;;2.85;;
28714;SDS011;15886;49.170;14.572;2023-06-22T14:08:46;6.53;;;3.38;;
28714;SDS011;15886;49.170;14.572;2023-06-22T14:11:15;6.25;;;3.25;;
28714;SDS011;15886;49.170;14.572;2023-06-22T14:13:44;4.15;;;2.88;;
28714;SDS011;15886;49.170;14.572;2023-06-22T14:16:14;8.48;;;3.92;;
28714;SDS011;15886;49.170;14.572;2023-06-22T14:18:42;5.30;;;3.72;;
28714;SDS011;15886;49.170;14.572;2023-06-22T14:21:12;13.65;;;4.35;;
28714;SDS011;15886;49.170;14.572;2023-06-22T14:23:40;5.72;;;3.13;;
28714;SDS011;15886;49.170;14.572;2023-06-22T14:26:09;4.70;;;2.90;;
28714;SDS011;15886;49.170;14.572;2023-06-22T14:28:38;5.13;;;3.30;;
28714;SDS011;15886;49.170;14.572;2023-06-22T14:31:07;8.00;;;3.13;;
28714;SDS011;15886;49.170;14.572;2023-06-22T14:33:35;9.80;;;4.18;;
28714;SDS011;15886;49.170;14.572;2023-06-22T14:36:04;7.10;;;3.28;;
28714;SDS011;15886;49.170;14.572;2023-06-22T14:41:07;4.43;;;3.47;;
28714;SDS011;15886;49.170;14.572;2023-06-22T14:43:42;7.65;;;3.55;;
28714;SDS011;15886;49.170;14.572;2023-06-22T14:46:11;4.13;;;2.92;;
28714;SDS011;15886;49.170;14.572;2023-06-22T14:48:39;9.10;;;4.28;;
28714;SDS011;15886;49.170;14.572;2023-06-22T14:51:08;11.35;;;4.30;;
28714;SDS011;15886;49.170;14.572;2023-06-22T14:53:38;5.25;;;3.38;;
28714;SDS011;15886;49.170;14.572;2023-06-22T14:56:06;6.50;;;3.80;;
28714;SDS011;15886;49.170;14.572;2023-06-22T14:58:35;4.57;;;3.17;;
28714;SDS011;15886;49.170;14.572;2023-06-22T15:01:04;4.45;;;2.85;;
28714;SDS011;15886;49.170;14.572;2023-06-22T15:03:36;6.35;;;3.38;;
28714;SDS011;15886;49.170;14.572;2023-06-22T15:06:04;4.40;;;2.85;;
28714;SDS011;15886;49.170;14.572;2023-06-22T15:08:38;8.80;;;5.47;;
28714;SDS011;15886;49.170;14.572;2023-06-22T15:11:08;5.88;;;3.13;;
28714;SDS011;15886;49.170;14.572;2023-06-22T15:13:40;12.00;;;4.28;;
28714;SDS011;15886;49.170;14.572;2023-06-22T15:16:09;3.63;;;2.78;;
28714;SDS011;15886;49.170;14.572;2023-06-22T15:18:37;10.93;;;5.15;;